Time;durP1;ratioP1;P1;durP2;ratioP2;P2;SDS_P1;SDS_P2;PMS_P1;PMS_P2;Temp;Humidity;BMP_temperature;BMP_pressure;BME280_temperature;BME280_humidity;BME280_pressure;Samples;Min_cycle;Max_cycle;Signal;HPM_P1;HPM_P2
2021/03/01 00:02:15;;;;;;;11.53;10.33;;;1.90;99.90;;;;;;5082021;28;20662;-91
2021/03/01 00:04:42;;;;;;;11.07;9.17;;;1.80;99.90;;;;;;5050289;28;20983;-89
2021/03/01 00:07:09;;;;;;;10.03;8.93;;;1.80;99.90;;;;;;5070012;28;20631;-89
2021/03/01 00:09:35;;;;;;;10.50;9.50;;;1.80;99.90;;;;;;5065528;28;20648;-90
2021/03/01 00:12:02;;;;;;;10.13;9.13;;;1.90;99.90;;;;;;5071588;28;21023;-90
2021/03/01 00:14:28;;;;;;;10.60;9.50;;;1.70;99.90;;;;;;5052304;28;20624;-89
2021/03/01 00:16:55;;;;;;;11.10;10.00;;;1.70;99.90;;;;;;5070505;28;20621;-90
2021/03/01 00:19:21;;;;;;;11.17;9.80;;;1.80;99.90;;;;;;5071100;28;20633;-89
2021/03/01 00:21:47;;;;;;;11.30;10.20;;;1.70;99.90;;;;;;5058502;28;20653;-89
2021/03/01 00:24:15;;;;;;;13.67;12.40;;;1.70;99.90;;;;;;5076884;28;20640;-90
2021/03/01 00:26:41;;;;;;;13.20;11.80;;;1.60;99.90;;;;;;5070108;28;20632;-91
2021/03/01 00:29:11;;;;;;;12.47;11.17;;;1.50;99.90;;;;;;5071371;28;20655;-90
2021/03/01 00:31:37;;;;;;;12.50;11.30;;;1.50;99.90;;;;;;5071468;28;20617;-91
2021/03/01 00:34:03;;;;;;;12.33;11.10;;;1.60;99.90;;;;;;5072217;28;20644;-92
2021/03/01 00:36:30;;;;;;;16.33;12.27;;;1.50;99.90;;;;;;5066154;28;20999;-91
2021/03/01 00:38:56;;;;;;;12.40;11.10;;;1.50;99.90;;;;;;5071342;28;20617;-91
2021/03/01 00:41:23;;;;;;;14.10;12.50;;;1.40;99.90;;;;;;5067734;28;20665;-91
2021/03/01 00:43:49;;;;;;;12.87;11.63;;;1.30;99.90;;;;;;5070375;28;20701;-91
2021/03/01 00:46:16;;;;;;;13.43;12.03;;;1.40;99.90;;;;;;5053855;28;20633;-90
2021/03/01 00:48:42;;;;;;;12.00;10.43;;;1.30;99.90;;;;;;5069751;28;20754;-90
2021/03/01 00:51:08;;;;;;;13.83;12.37;;;1.20;99.90;;;;;;5069696;28;20664;-90
2021/03/01 00:53:35;;;;;;;13.07;11.57;;;1.30;99.90;;;;;;5069439;28;20613;-92
2021/03/01 00:56:01;;;;;;;13.70;11.10;;;1.40;99.90;;;;;;5066801;28;20602;-90
2021/03/01 00:58:28;;;;;;;12.53;11.30;;;1.20;99.90;;;;;;5070343;28;20608;-91
2021/03/01 01:00:55;;;;;;;15.17;13.30;;;1.10;99.90;;;;;;5064626;28;20665;-91
2021/03/01 01:03:21;;;;;;;13.90;11.87;;;1.00;99.90;;;;;;5068131;28;20674;-89
2021/03/01 01:05:48;;;;;;;12.83;11.43;;;1.00;99.90;;;;;;5068660;28;21521;-89
2021/03/01 01:08:15;;;;;;;12.50;11.30;;;1.10;99.90;;;;;;5068017;28;20993;-89
2021/03/01 01:10:41;;;;;;;14.23;12.73;;;1.00;99.90;;;;;;5051132;28;20653;-89
2021/03/01 01:13:08;;;;;;;13.00;11.20;;;1.00;99.90;;;;;;5068091;28;20628;-89
2021/03/01 01:15:36;;;;;;;12.90;11.60;;;1.00;99.90;;;;;;5065839;28;20972;-91
2021/03/01 01:18:02;;;;;;;11.77;10.57;;;0.90;99.90;;;;;;5071045;28;20669;-90
2021/03/01 01:20:29;;;;;;;15.17;12.00;;;0.90;99.90;;;;;;5070320;28;20853;-89
2021/03/01 01:22:55;;;;;;;13.90;11.10;;;0.90;99.90;;;;;;5068489;28;20683;-90
2021/03/01 01:25:21;;;;;;;11.73;10.53;;;1.00;99.90;;;;;;5068952;28;20663;-89
2021/03/01 01:27:48;;;;;;;13.27;11.83;;;0.90;99.90;;;;;;5049459;28;20740;-89
2021/03/01 01:30:17;;;;;;;14.90;13.30;;;0.80;99.90;;;;;;5068607;28;21010;-89
2021/03/01 01:32:45;;;;;;;13.97;12.50;;;0.80;99.90;;;;;;5067883;28;20628;-93
2021/03/01 01:35:12;;;;;;;14.23;12.73;;;0.80;99.90;;;;;;5069902;28;20975;-93
2021/03/01 01:37:40;;;;;;;15.43;13.67;;;0.80;99.90;;;;;;5070335;28;20633;-93
2021/03/01 01:40:09;;;;;;;16.47;13.40;;;0.80;99.90;;;;;;5071428;28;20629;-93
2021/03/01 01:42:36;;;;;;;13.97;12.53;;;0.80;99.90;;;;;;5069784;28;20657;-94
2021/03/01 01:45:06;;;;;;;15.80;13.10;;;0.80;99.90;;;;;;5070785;28;21219;-93
2021/03/01 01:47:33;;;;;;;17.03;13.43;;;0.80;99.90;;;;;;5063837;28;20630;-92
2021/03/01 01:50:00;;;;;;;18.60;14.90;;;0.80;99.90;;;;;;5048245;28;20676;-92
2021/03/01 01:52:27;;;;;;;15.70;14.10;;;0.80;99.90;;;;;;5067165;28;20683;-91
2021/03/01 01:54:53;;;;;;;14.93;13.27;;;0.70;99.90;;;;;;5068993;28;20637;-92
2021/03/01 01:57:19;;;;;;;16.73;15.03;;;0.70;99.90;;;;;;5069979;28;20978;-91
2021/03/01 01:59:46;;;;;;;15.80;13.50;;;0.70;99.90;;;;;;5065813;28;20672;-91
2021/03/01 02:02:13;;;;;;;15.10;13.07;;;0.70;99.90;;;;;;5068182;28;20650;-91
2021/03/01 02:04:42;;;;;;;15.83;14.13;;;0.60;99.90;;;;;;5070512;28;20630;-95
2021/03/01 02:07:14;;;;;;;14.60;13.10;;;0.70;99.90;;;;;;5071008;28;20693;-94
2021/03/01 02:09:55;;;;;;;14.93;13.43;;;0.70;99.90;;;;;;5069830;28;21094;-93
2021/03/01 02:12:27;;;;;;;15.77;14.03;;;0.70;99.90;;;;;;5066760;28;20637;-95
2021/03/01 02:15:05;;;;;;;14.67;13.10;;;0.70;99.90;;;;;;5066335;28;20643;-94
2021/03/01 02:17:32;;;;;;;15.60;13.70;;;0.70;99.90;;;;;;5069340;28;21422;-92
2021/03/01 02:19:59;;;;;;;16.03;13.80;;;0.70;99.90;;;;;;5065801;28;21221;-92
2021/03/01 02:22:26;;;;;;;16.43;12.73;;;0.70;99.90;;;;;;5062617;28;20656;-92
2021/03/01 02:24:55;;;;;;;15.00;13.50;;;0.80;99.90;;;;;;5069567;28;20635;-94
2021/03/01 02:27:25;;;;;;;14.43;13.10;;;0.70;99.90;;;;;;5068222;28;20633;-92
2021/03/01 02:29:55;;;;;;;15.50;13.40;;;0.70;99.90;;;;;;5068475;28;20668;-92
2021/03/01 02:32:23;;;;;;;15.90;14.40;;;0.60;99.90;;;;;;5069787;28;20637;-92
2021/03/01 02:34:51;;;;;;;17.17;13.80;;;0.60;99.90;;;;;;5069000;28;20644;-92
2021/03/01 02:37:22;;;;;;;14.97;13.27;;;0.60;99.90;;;;;;5049866;28;20646;-92
2021/03/01 02:39:52;;;;;;;15.27;13.43;;;0.70;99.90;;;;;;5060947;28;20763;-93
2021/03/01 02:42:22;;;;;;;14.47;12.70;;;0.60;99.90;;;;;;5068422;28;20661;-93
2021/03/01 02:44:50;;;;;;;16.30;14.60;;;0.60;99.90;;;;;;5031643;28;20625;-93
2021/03/01 02:47:19;;;;;;;17.10;15.30;;;0.50;99.90;;;;;;5062175;28;20929;-93
2021/03/01 02:49:51;;;;;;;17.53;14.30;;;0.50;99.90;;;;;;5066371;28;20657;-91
2021/03/01 02:52:19;;;;;;;13.73;12.23;;;0.40;99.90;;;;;;5071176;28;20645;-92
2021/03/01 02:54:48;;;;;;;14.87;13.30;;;0.40;99.90;;;;;;5067568;28;21030;-93
2021/03/01 02:57:16;;;;;;;15.60;12.87;;;0.50;99.90;;;;;;5065044;28;20641;-91
2021/03/01 02:59:45;;;;;;;15.00;13.50;;;0.40;99.90;;;;;;5062293;28;20676;-92
2021/03/01 03:02:12;;;;;;;16.43;12.80;;;0.40;99.90;;;;;;5064994;28;20657;-92
2021/03/01 03:04:40;;;;;;;15.07;12.57;;;0.20;99.90;;;;;;5068042;28;20637;-92
2021/03/01 03:07:07;;;;;;;15.20;13.20;;;0.20;99.90;;;;;;5064486;28;21003;-92
2021/03/01 03:09:33;;;;;;;14.87;13.33;;;0.10;99.90;;;;;;5068687;28;20648;-91
2021/03/01 03:12:02;;;;;;;14.43;12.93;;;0.30;99.90;;;;;;5048484;28;20676;-92
2021/03/01 03:14:33;;;;;;;15.63;13.40;;;0.30;99.90;;;;;;5066996;28;20671;-93
2021/03/01 03:17:00;;;;;;;19.37;13.97;;;0.20;99.90;;;;;;5075383;28;20627;-92
2021/03/01 03:19:28;;;;;;;15.03;13.63;;;0.10;99.90;;;;;;5090559;28;21047;-92
2021/03/01 03:21:55;;;;;;;15.30;13.70;;;0.10;99.90;;;;;;5087574;28;20654;-93
2021/03/01 03:24:22;;;;;;;14.90;13.40;;;0.00;99.90;;;;;;5091821;28;20629;-93
2021/03/01 03:26:49;;;;;;;15.07;13.47;;;0.00;99.90;;;;;;5056922;28;20625;-91
2021/03/01 03:29:15;;;;;;;15.50;13.80;;;0.10;99.90;;;;;;5070505;28;20663;-92
2021/03/01 03:31:43;;;;;;;16.10;14.23;;;0.10;99.90;;;;;;5065818;28;20660;-92
2021/03/01 03:34:09;;;;;;;16.00;14.30;;;0.10;99.90;;;;;;5067673;28;20648;-92
2021/03/01 03:36:41;;;;;;;15.20;13.63;;;0.10;99.90;;;;;;5066573;28;20699;-92
2021/03/01 03:39:10;;;;;;;17.40;14.13;;;0.20;99.90;;;;;;5069556;28;21039;-92
2021/03/01 03:41:38;;;;;;;15.23;13.67;;;0.10;99.90;;;;;;5067778;28;20656;-92
2021/03/01 03:44:07;;;;;;;15.97;13.53;;;0.00;99.90;;;;;;5073491;28;20988;-93
2021/03/01 03:46:34;;;;;;;18.50;13.33;;;0.00;99.90;;;;;;5075966;28;20631;-91
2021/03/01 03:49:02;;;;;;;15.03;13.50;;;0.00;99.90;;;;;;5074382;28;20633;-91
2021/03/01 03:51:30;;;;;;;15.17;13.63;;;0.10;99.90;;;;;;5086280;28;20660;-91
2021/03/01 03:54:01;;;;;;;14.43;12.90;;;0.10;99.90;;;;;;5090993;28;20623;-92
2021/03/01 03:56:34;;;;;;;15.57;14.07;;;0.00;99.90;;;;;;5072960;28;20624;-91
2021/03/01 03:59:04;;;;;;;19.47;14.17;;;-0.10;99.90;;;;;;5092677;28;20625;-93
2021/03/01 04:01:34;;;;;;;17.50;13.70;;;-0.20;99.90;;;;;;5091581;28;20692;-93
2021/03/01 04:04:05;;;;;;;14.97;13.33;;;-0.10;99.90;;;;;;5093881;28;20596;-93
2021/03/01 04:06:35;;;;;;;15.00;13.40;;;-0.20;99.90;;;;;;5092628;28;20613;-93
2021/03/01 04:09:05;;;;;;;15.20;13.60;;;-0.20;99.90;;;;;;5091112;28;20612;-93
2021/03/01 04:11:32;;;;;;;15.03;13.43;;;-0.20;99.90;;;;;;5087316;28;20680;-91
2021/03/01 04:14:00;;;;;;;16.73;14.90;;;-0.20;99.90;;;;;;5070660;28;20622;-92
2021/03/01 04:16:30;;;;;;;16.67;14.00;;;-0.20;99.90;;;;;;5070925;28;20618;-91
2021/03/01 04:19:02;;;;;;;17.83;12.70;;;-0.20;99.90;;;;;;5046919;28;21145;-93
2021/03/01 04:21:31;;;;;;;22.00;15.17;;;-0.20;99.90;;;;;;5067676;28;20741;-90
2021/03/01 04:23:59;;;;;;;15.23;13.27;;;-0.10;99.90;;;;;;5072618;28;20644;-92
2021/03/01 04:26:26;;;;;;;16.63;14.17;;;-0.20;99.90;;;;;;5068904;28;20640;-92
2021/03/01 04:28:54;;;;;;;18.50;15.57;;;-0.20;99.90;;;;;;5067978;28;20613;-94
2021/03/01 04:31:21;;;;;;;17.20;15.03;;;-0.20;99.90;;;;;;5068624;28;20654;-93
2021/03/01 04:33:49;;;;;;;14.57;12.67;;;-0.10;99.90;;;;;;5069352;28;20641;-92
2021/03/01 04:36:17;;;;;;;16.57;14.87;;;-0.10;99.90;;;;;;5069941;28;20625;-91
2021/03/01 04:38:45;;;;;;;15.83;14.13;;;-0.20;99.90;;;;;;5071652;28;20629;-92
2021/03/01 04:41:12;;;;;;;17.07;14.60;;;-0.20;99.90;;;;;;5069668;28;21017;-92
2021/03/01 04:43:42;;;;;;;15.97;14.27;;;-0.30;99.90;;;;;;5068514;28;20945;-90
2021/03/01 04:46:09;;;;;;;18.93;14.87;;;-0.30;99.90;;;;;;5066902;28;20637;-91
2021/03/01 04:48:37;;;;;;;15.90;14.20;;;-0.30;99.90;;;;;;5051432;28;20636;-91
2021/03/01 04:51:05;;;;;;;16.20;13.93;;;-0.30;99.90;;;;;;5070060;28;20652;-90
2021/03/01 04:53:33;;;;;;;16.63;14.87;;;-0.20;99.90;;;;;;5071122;28;20641;-90
2021/03/01 04:56:03;;;;;;;16.33;14.00;;;-0.20;99.90;;;;;;5063264;28;21275;-92
2021/03/01 04:58:30;;;;;;;16.03;14.40;;;-0.30;99.90;;;;;;5068425;28;21043;-92
2021/03/01 05:01:00;;;;;;;18.20;14.67;;;-0.40;99.90;;;;;;5067779;28;20648;-90
2021/03/01 05:03:28;;;;;;;16.37;14.63;;;-0.30;99.90;;;;;;5048848;28;20635;-91
2021/03/01 05:05:58;;;;;;;17.63;15.70;;;-0.20;99.90;;;;;;5066950;28;20658;-91
2021/03/01 05:08:27;;;;;;;17.90;14.50;;;-0.20;99.90;;;;;;5068445;28;20640;-90
2021/03/01 05:10:55;;;;;;;15.90;14.27;;;-0.20;99.90;;;;;;5066847;28;20657;-90
2021/03/01 05:13:24;;;;;;;16.80;15.10;;;-0.30;99.90;;;;;;5069997;28;20647;-90
2021/03/01 05:15:50;;;;;;;17.67;15.83;;;-0.30;99.90;;;;;;5068765;28;20645;-90
2021/03/01 05:18:18;;;;;;;20.40;14.73;;;-0.30;99.90;;;;;;5068891;28;20609;-90
2021/03/01 05:20:44;;;;;;;16.53;14.80;;;-0.30;99.90;;;;;;5069970;28;20683;-93
2021/03/01 05:23:11;;;;;;;18.63;14.83;;;-0.30;99.90;;;;;;5065771;28;20669;-89
2021/03/01 05:25:38;;;;;;;15.97;14.27;;;-0.20;99.90;;;;;;5070233;28;21077;-90
2021/03/01 05:28:04;;;;;;;17.07;14.90;;;-0.20;99.90;;;;;;5073625;28;20755;-90
2021/03/01 05:30:32;;;;;;;15.43;12.63;;;-0.30;99.90;;;;;;5066420;28;20664;-91
2021/03/01 05:32:58;;;;;;;16.37;13.20;;;-0.30;99.90;;;;;;5074472;28;20620;-91
2021/03/01 05:35:25;;;;;;;15.93;13.80;;;-0.40;99.90;;;;;;5088402;28;20640;-90
2021/03/01 05:37:52;;;;;;;17.87;16.07;;;-0.40;99.90;;;;;;5071048;28;20947;-91
2021/03/01 05:40:18;;;;;;;21.03;15.97;;;-0.50;99.90;;;;;;5071989;28;20645;-90
2021/03/01 05:42:46;;;;;;;17.50;14.37;;;-0.60;99.90;;;;;;5068054;28;20641;-91
2021/03/01 05:45:13;;;;;;;22.03;15.40;;;-0.60;99.90;;;;;;5070356;28;20606;-91
2021/03/01 05:47:44;;;;;;;16.50;14.70;;;-0.60;99.90;;;;;;5071538;28;21155;-92
2021/03/01 05:50:12;;;;;;;18.80;15.73;;;-0.60;99.90;;;;;;5068251;28;20665;-92
2021/03/01 05:52:45;;;;;;;25.83;14.53;;;-0.50;99.90;;;;;;5070481;28;20657;-94
2021/03/01 05:55:22;;;;;;;15.17;13.10;;;-0.50;99.90;;;;;;5075138;28;21188;-93
2021/03/01 05:57:49;;;;;;;18.23;13.10;;;-0.50;99.90;;;;;;5073716;28;20679;-94
2021/03/01 06:00:16;;;;;;;24.47;15.57;;;-0.50;99.90;;;;;;5077863;28;20668;-94
2021/03/01 06:02:44;;;;;;;17.10;14.93;;;-0.60;99.90;;;;;;5063945;28;20653;-95
2021/03/01 06:05:14;;;;;;;17.10;14.80;;;-0.60;99.90;;;;;;5086418;28;20617;-95
2021/03/01 06:07:41;;;;;;;18.70;15.23;;;-0.60;99.90;;;;;;5080344;28;20629;-94
2021/03/01 06:10:10;;;;;;;16.07;14.00;;;-0.50;99.90;;;;;;5074796;28;20680;-94
2021/03/01 06:12:38;;;;;;;18.57;14.63;;;-0.50;99.90;;;;;;5075075;28;20635;-93
2021/03/01 06:15:06;;;;;;;17.20;15.40;;;-0.50;99.90;;;;;;5075946;28;20671;-94
2021/03/01 06:17:33;;;;;;;17.90;16.00;;;-0.40;99.90;;;;;;5076682;28;21211;-94
2021/03/01 06:20:01;;;;;;;18.03;15.27;;;-0.50;99.90;;;;;;5055143;28;20702;-94
2021/03/01 06:22:40;;;;;;;20.50;16.13;;;-0.50;99.90;;;;;;5075850;28;21221;-94
2021/03/01 06:25:11;;;;;;;16.50;13.40;;;-0.60;99.90;;;;;;5058222;28;20629;-95
2021/03/01 06:27:55;;;;;;;17.00;14.70;;;-0.60;99.90;;;;;;5067942;28;21242;-95
2021/03/01 06:30:27;;;;;;;19.23;13.83;;;-0.50;99.90;;;;;;5070938;28;20661;-94
2021/03/01 06:33:10;;;;;;;19.70;14.27;;;-0.60;99.90;;;;;;5054226;28;20641;-93
2021/03/01 06:35:42;;;;;;;16.37;14.47;;;-0.60;99.90;;;;;;5072084;28;20664;-94
2021/03/01 06:38:26;;;;;;;16.63;14.27;;;-0.60;99.90;;;;;;5078323;28;20629;-95
2021/03/01 06:41:09;;;;;;;14.13;12.63;;;-0.50;99.90;;;;;;5084718;28;20649;-93
2021/03/01 06:43:37;;;;;;;14.20;11.90;;;-0.50;99.90;;;;;;5088414;28;20668;-94
2021/03/01 06:46:08;;;;;;;17.63;14.10;;;-0.50;99.90;;;;;;5088481;28;20606;-94
2021/03/01 06:48:47;;;;;;;16.77;13.73;;;-0.50;99.90;;;;;;5097298;28;20651;-96
2021/03/01 06:51:44;;;;;;;18.10;15.73;;;-0.40;99.90;;;;;;5096690;28;20704;-96
2021/03/01 07:02:45;;;;;;;17.00;14.83;;;0.10;99.90;;;;;;5081305;28;20710;-94
2021/03/01 07:05:26;;;;;;;18.37;14.47;;;0.10;99.90;;;;;;5077318;28;20625;-94
2021/03/01 07:07:54;;;;;;;16.50;13.70;;;0.20;99.90;;;;;;5085300;28;20613;-94
2021/03/01 07:10:25;;;;;;;19.40;14.37;;;0.30;99.90;;;;;;5078136;28;20756;-94
2021/03/01 07:12:54;;;;;;;18.20;15.10;;;0.30;99.90;;;;;;5076884;28;20654;-95
2021/03/01 07:15:21;;;;;;;19.57;13.83;;;0.40;99.90;;;;;;5081610;28;20677;-94
2021/03/01 07:17:49;;;;;;;20.83;15.60;;;0.40;99.90;;;;;;5077360;28;21012;-91
2021/03/01 07:20:17;;;;;;;16.07;14.47;;;0.50;99.90;;;;;;5054485;28;20648;-91
2021/03/01 07:22:45;;;;;;;17.87;15.40;;;0.60;99.90;;;;;;5073739;28;21022;-90
2021/03/01 07:25:14;;;;;;;15.17;13.63;;;0.70;99.90;;;;;;5072592;28;21064;-90
2021/03/01 07:27:42;;;;;;;16.87;15.07;;;0.80;99.90;;;;;;5084126;28;21087;-89
2021/03/01 07:30:11;;;;;;;16.03;14.33;;;0.90;99.90;;;;;;5078457;28;20647;-90
2021/03/01 07:32:39;;;;;;;15.83;14.00;;;1.00;99.90;;;;;;5066873;28;20671;-90
2021/03/01 07:35:07;;;;;;;17.00;15.27;;;1.10;99.90;;;;;;5072552;28;20657;-90
2021/03/01 07:37:36;;;;;;;17.47;15.60;;;1.20;99.90;;;;;;5074173;28;20602;-91
2021/03/01 07:40:04;;;;;;;18.27;15.63;;;1.30;99.90;;;;;;5076396;28;20659;-86
2021/03/01 07:42:33;;;;;;;18.30;16.40;;;1.40;99.90;;;;;;5077866;28;20677;-93
2021/03/01 07:47:43;;;;;;;19.13;17.17;;;1.80;99.90;;;;;;5074585;28;20624;-94
2021/03/01 07:50:13;;;;;;;18.03;15.20;;;1.90;99.90;;;;;;5079094;28;21171;-93
2021/03/01 07:52:45;;;;;;;17.57;15.00;;;2.10;99.90;;;;;;5079393;28;20649;-91
2021/03/01 07:55:13;;;;;;;19.03;15.27;;;2.50;99.90;;;;;;5076842;28;20629;-93
2021/03/01 07:57:59;;;;;;;19.00;15.30;;;2.60;99.90;;;;;;5065232;28;20716;-91
2021/03/01 08:00:27;;;;;;;18.90;16.93;;;2.60;99.90;;;;;;5079352;28;20669;-91
2021/03/01 08:02:55;;;;;;;18.50;16.50;;;2.90;99.90;;;;;;5055541;28;21031;-93
2021/03/01 08:05:27;;;;;;;18.43;16.10;;;3.10;99.90;;;;;;5078090;28;20633;-93
2021/03/01 08:07:54;;;;;;;17.53;15.40;;;3.30;99.90;;;;;;5077412;28;20708;-91
2021/03/01 08:10:46;;;;;;;16.47;14.87;;;3.30;99.90;;;;;;5082638;28;20632;-93
2021/03/01 08:13:13;;;;;;;17.80;15.90;;;3.50;99.90;;;;;;5081574;28;20659;-92
2021/03/01 08:15:45;;;;;;;17.23;15.50;;;3.60;99.90;;;;;;5085819;28;20625;-92
2021/03/01 08:18:14;;;;;;;21.00;16.00;;;3.70;99.90;;;;;;5086147;28;20664;-92
2021/03/01 08:21:00;;;;;;;17.50;15.80;;;3.70;99.90;;;;;;5082763;28;20628;-92
2021/03/01 08:23:35;;;;;;;15.73;14.03;;;3.90;99.90;;;;;;5080855;28;20709;-92
2021/03/01 08:26:29;;;;;;;16.30;14.63;;;4.10;99.90;;;;;;5065045;28;20671;-92
2021/03/01 08:29:01;;;;;;;15.10;13.50;;;4.30;99.90;;;;;;5076360;28;20652;-93
2021/03/01 08:31:33;;;;;;;17.23;15.43;;;4.70;99.90;;;;;;5065418;28;20728;-93
2021/03/01 08:34:34;;;;;;;15.60;14.10;;;4.80;99.90;;;;;;5072898;28;20718;-93
2021/03/01 08:43:25;;;;;;;16.30;14.70;;;5.60;99.90;;;;;;5077777;28;21152;-92
2021/03/01 08:45:54;;;;;;;15.97;14.37;;;6.00;99.90;;;;;;5069377;28;20633;-92
2021/03/01 08:48:22;;;;;;;15.87;14.17;;;6.40;99.90;;;;;;5078360;28;20624;-92
2021/03/01 08:50:51;;;;;;;14.20;12.70;;;6.60;99.90;;;;;;5075617;28;20606;-92
2021/03/01 08:53:24;;;;;;;15.13;12.60;;;6.80;99.90;;;;;;5059411;28;20965;-93
2021/03/01 08:55:52;;;;;;;13.00;11.70;;;6.90;99.90;;;;;;5071495;28;21207;-93
2021/03/01 08:58:20;;;;;;;16.10;13.17;;;7.10;99.90;;;;;;5080198;28;20628;-94
2021/03/01 09:01:06;;;;;;;14.13;12.83;;;7.40;99.30;;;;;;5062717;28;20978;-94
2021/03/01 09:03:34;;;;;;;13.20;11.90;;;7.50;97.80;;;;;;5080024;28;20733;-94
2021/03/01 09:06:06;;;;;;;13.53;12.13;;;7.70;98.00;;;;;;5080641;28;20716;-95
2021/03/01 09:08:35;;;;;;;13.17;11.97;;;7.90;97.50;;;;;;5078446;28;20694;-95
2021/03/01 09:11:06;;;;;;;13.03;11.83;;;8.10;96.90;;;;;;5081305;28;20636;-95
2021/03/01 09:13:47;;;;;;;13.77;12.43;;;8.20;96.40;;;;;;5076359;28;20731;-95
2021/03/01 09:16:23;;;;;;;17.17;15.07;;;8.40;96.40;;;;;;5068816;28;20682;-93
2021/03/01 09:19:23;;;;;;;14.93;13.10;;;8.50;96.00;;;;;;5082526;28;20647;-94
2021/03/01 09:21:57;;;;;;;13.93;11.73;;;8.60;95.20;;;;;;5077729;28;21125;-93
2021/03/01 09:24:24;;;;;;;11.27;10.27;;;8.50;95.30;;;;;;5074354;28;20749;-92
2021/03/01 09:26:53;;;;;;;12.33;11.20;;;8.70;94.60;;;;;;5080137;28;20627;-93
2021/03/01 09:29:32;;;;;;;12.20;10.97;;;8.80;94.40;;;;;;5083686;28;20631;-94
2021/03/01 09:31:59;;;;;;;11.90;10.70;;;9.10;93.80;;;;;;5080450;28;20655;-94
2021/03/01 09:34:28;;;;;;;12.03;10.70;;;9.20;93.90;;;;;;5076362;28;20680;-94
2021/03/01 09:37:00;;;;;;;11.90;10.83;;;9.30;93.20;;;;;;5080895;28;20625;-92
2021/03/01 09:39:30;;;;;;;14.13;12.00;;;9.30;93.40;;;;;;5077295;28;20640;-93
2021/03/01 09:42:02;;;;;;;12.90;11.63;;;9.60;92.90;;;;;;5088813;28;20679;-94
2021/03/01 09:47:28;;;;;;;11.60;10.40;;;10.00;91.30;;;;;;5089049;28;20609;-95
2021/03/01 09:52:41;;;;;;;13.60;10.50;;;10.70;90.10;;;;;;5079900;28;20663;-96
2021/03/01 09:55:10;;;;;;;10.97;9.97;;;10.80;89.80;;;;;;5087284;28;20649;-94
2021/03/01 09:57:37;;;;;;;11.63;10.17;;;10.90;87.90;;;;;;5061633;28;20629;-94
2021/03/01 10:00:35;;;;;;;10.00;8.20;;;11.00;88.20;;;;;;5072530;28;20634;-94
2021/03/01 10:03:11;;;;;;;9.87;8.87;;;11.40;84.90;;;;;;4993590;28;20658;-95
2021/03/01 10:05:40;;;;;;;11.90;10.47;;;11.40;84.80;;;;;;5066659;28;20653;-95
2021/03/01 10:08:20;;;;;;;13.93;7.80;;;11.60;83.20;;;;;;5088330;28;20625;-96
2021/03/01 10:10:48;;;;;;;10.53;9.50;;;11.80;81.20;;;;;;5081212;28;20652;-95
2021/03/01 10:13:27;;;;;;;10.77;8.00;;;12.00;81.40;;;;;;5091366;28;20801;-96
2021/03/01 10:18:43;;;;;;;6.47;5.73;;;12.40;78.80;;;;;;5078473;28;20988;-94
2021/03/01 10:21:15;;;;;;;7.73;7.00;;;12.50;74.40;;;;;;5083009;28;20617;-95
2021/03/01 10:24:06;;;;;;;5.00;4.30;;;12.90;73.40;;;;;;5066579;28;20740;-96
2021/03/01 10:27:04;;;;;;;4.47;3.80;;;12.70;68.80;;;;;;5083760;28;20633;-96
2021/03/01 10:29:43;;;;;;;6.70;5.87;;;13.10;60.90;;;;;;5092985;28;20613;-96
2021/03/01 10:32:21;;;;;;;9.53;6.70;;;13.40;68.00;;;;;;5094269;28;20636;-96
2021/03/01 10:41:12;;;;;;;6.53;5.90;;;14.10;68.10;;;;;;5090072;28;20616;-96
2021/03/01 10:50:38;;;;;;;8.30;7.50;;;14.50;64.10;;;;;;5086712;28;20614;-94
2021/03/01 10:53:11;;;;;;;6.90;6.20;;;14.50;64.70;;;;;;5085121;28;20680;-95
2021/03/01 10:55:39;;;;;;;6.10;5.47;;;14.90;63.80;;;;;;5084916;28;20625;-93
2021/03/01 10:58:05;;;;;;;6.10;5.00;;;14.70;61.30;;;;;;5077710;28;20653;-91
2021/03/01 11:00:32;;;;;;;4.50;4.00;;;15.10;55.50;;;;;;5072557;28;20625;-91
2021/03/01 11:14:15;;;;;;;4.60;3.93;;;15.60;47.30;;;;;;5305079;22;20665;-96
2021/03/01 11:16:49;;;;;;;4.27;3.93;;;15.20;44.30;;;;;;5070461;28;20694;-96
2021/03/01 11:24:19;;;;;;;4.27;3.80;;;15.50;43.10;;;;;;5075677;28;20702;-96
2021/03/01 11:26:47;;;;;;;4.70;4.20;;;16.10;43.90;;;;;;5047714;28;20640;-95
2021/03/01 11:29:16;;;;;;;5.20;4.30;;;15.70;43.50;;;;;;5048499;28;20630;-95
2021/03/01 11:31:46;;;;;;;5.47;4.90;;;16.10;43.90;;;;;;5075731;28;20636;-94
2021/03/01 11:34:15;;;;;;;3.83;3.43;;;16.00;44.50;;;;;;5073040;28;20752;-95
2021/03/01 11:36:42;;;;;;;5.20;4.20;;;16.10;44.70;;;;;;5062438;28;20633;-89
2021/03/01 11:39:13;;;;;;;7.10;4.50;;;16.50;44.50;;;;;;5066260;28;20621;-92
2021/03/01 11:41:40;;;;;;;3.90;3.50;;;16.80;44.60;;;;;;5064555;28;20660;-91
2021/03/01 11:44:09;;;;;;;4.03;3.43;;;16.90;44.00;;;;;;5064714;28;20673;-91
2021/03/01 11:46:36;;;;;;;3.63;3.30;;;16.80;43.90;;;;;;5071400;28;21051;-93
2021/03/01 11:49:05;;;;;;;4.20;3.90;;;17.00;43.60;;;;;;5047264;28;20697;-92
2021/03/01 11:51:35;;;;;;;4.00;3.60;;;17.00;44.20;;;;;;5069623;28;20640;-93
2021/03/01 11:54:02;;;;;;;4.10;3.80;;;17.50;43.40;;;;;;5063581;28;20644;-93
2021/03/01 11:56:32;;;;;;;4.20;3.13;;;17.60;43.30;;;;;;5068213;28;21153;-93
2021/03/01 11:59:03;;;;;;;3.97;3.57;;;17.40;42.90;;;;;;5074571;28;20579;-92
2021/03/01 12:04:53;;;;;;;3.57;3.27;;;18.10;43.00;;;;;;5084928;28;20581;-93
2021/03/01 12:07:19;;;;;;;3.03;2.80;;;18.00;43.80;;;;;;5087257;28;20684;-93
2021/03/01 12:13:08;;;;;;;3.53;2.90;;;17.80;43.90;;;;;;5085646;28;20617;-94
2021/03/01 12:15:36;;;;;;;4.23;3.40;;;17.80;43.00;;;;;;5084262;28;20626;-94
2021/03/01 12:18:03;;;;;;;5.10;3.80;;;17.70;43.90;;;;;;5089808;28;20683;-94
2021/03/01 12:20:30;;;;;;;3.90;3.60;;;18.20;43.70;;;;;;5064053;28;20728;-93
2021/03/01 12:22:57;;;;;;;3.30;2.90;;;18.40;44.60;;;;;;5083296;28;20660;-94
2021/03/01 12:25:26;;;;;;;4.30;3.37;;;18.70;43.40;;;;;;5089336;28;20645;-94
2021/03/01 12:27:53;;;;;;;5.60;3.77;;;18.60;43.20;;;;;;5081420;28;20657;-93
2021/03/01 12:32:53;;;;;;;3.60;3.30;;;18.30;42.40;;;;;;5088754;28;20630;-94
2021/03/01 12:35:20;;;;;;;3.27;2.97;;;18.80;42.40;;;;;;5086746;28;20626;-94
2021/03/01 12:38:06;;;;;;;3.83;3.53;;;19.00;43.10;;;;;;5083065;28;20625;-95
2021/03/01 12:40:34;;;;;;;4.40;3.57;;;19.10;42.80;;;;;;5080851;28;20625;-95
2021/03/01 12:43:03;;;;;;;4.73;4.20;;;18.50;42.30;;;;;;5073459;28;20717;-94
2021/03/01 12:45:33;;;;;;;4.60;3.40;;;18.70;43.40;;;;;;5070972;28;20627;-94
2021/03/01 12:48:28;;;;;;;3.97;3.67;;;18.50;43.00;;;;;;5060260;28;20631;-95
2021/03/01 12:51:05;;;;;;;5.00;3.57;;;19.10;43.20;;;;;;5062850;28;20696;-95
2021/03/01 12:56:32;;;;;;;3.03;2.83;;;19.30;43.20;;;;;;5059325;28;20614;-95
2021/03/01 12:59:00;;;;;;;3.73;3.47;;;19.90;43.10;;;;;;5069299;28;20712;-94
2021/03/01 13:01:33;;;;;;;4.27;3.87;;;19.70;42.60;;;;;;5055214;28;21009;-95
2021/03/01 13:04:01;;;;;;;3.90;3.40;;;19.50;42.20;;;;;;5042952;28;20730;-94
2021/03/01 13:06:38;;;;;;;4.50;4.10;;;20.00;42.90;;;;;;5061842;28;20635;-94
2021/03/01 13:09:18;;;;;;;3.73;3.43;;;20.70;42.20;;;;;;5058220;28;20633;-94
2021/03/01 13:11:54;;;;;;;3.80;3.50;;;20.20;42.20;;;;;;5048480;28;20761;-94
2021/03/01 13:14:25;;;;;;;5.70;3.73;;;20.00;41.50;;;;;;5053019;28;20707;-95
2021/03/01 13:17:00;;;;;;;3.87;3.47;;;19.70;42.60;;;;;;5052956;28;20618;-94
2021/03/01 13:22:08;;;;;;;4.70;3.80;;;20.70;42.30;;;;;;5056416;28;20661;-94
2021/03/01 13:27:28;;;;;;;4.10;3.80;;;21.40;41.10;;;;;;5054837;28;20668;-93
2021/03/01 13:29:57;;;;;;;4.93;4.47;;;21.50;41.80;;;;;;5068807;28;20716;-93
2021/03/01 13:32:26;;;;;;;4.13;3.83;;;20.90;41.30;;;;;;5078368;28;20738;-93
2021/03/01 13:34:53;;;;;;;4.07;3.77;;;21.40;41.90;;;;;;5063981;28;20652;-94
2021/03/01 13:37:20;;;;;;;4.33;3.57;;;21.70;42.00;;;;;;5047749;28;20665;-94
2021/03/01 13:40:13;;;;;;;5.73;4.33;;;21.10;41.30;;;;;;5058063;28;20614;-94
2021/03/01 13:42:40;;;;;;;4.30;4.00;;;21.60;41.00;;;;;;5063130;28;20674;-95
2021/03/01 13:45:12;;;;;;;4.27;3.70;;;21.30;40.90;;;;;;5032447;28;21453;-95
2021/03/01 13:47:56;;;;;;;5.30;4.83;;;20.70;41.70;;;;;;5046049;28;20626;-92
2021/03/01 13:50:22;;;;;;;3.70;3.40;;;20.60;41.60;;;;;;5066544;28;20709;-94
2021/03/01 13:52:50;;;;;;;4.17;3.77;;;21.10;41.90;;;;;;5054267;28;20674;-94
2021/03/01 13:55:41;;;;;;;4.30;3.87;;;21.70;42.10;;;;;;5059511;28;20609;-95
2021/03/01 13:58:11;;;;;;;6.13;4.07;;;21.90;41.70;;;;;;5054114;28;21070;-94
2021/03/01 14:00:38;;;;;;;4.80;4.50;;;21.90;41.00;;;;;;5055865;28;20649;-95
2021/03/01 14:03:05;;;;;;;6.67;4.27;;;21.40;41.20;;;;;;5058274;28;20756;-94
2021/03/01 14:05:43;;;;;;;4.33;4.03;;;22.00;41.10;;;;;;5057370;28;20626;-94
2021/03/01 14:08:11;;;;;;;4.60;4.30;;;22.30;40.50;;;;;;5045446;28;20629;-94